sensor_id;sensor_type;location;lat;lon;timestamp;P1;durP1;ratioP1;P2;durP2;ratioP2
17283;SDS011;8760;52.248;20.952;2024-01-30T00:02:17;1999.90;;;999.90;;
17283;SDS011;8760;52.248;20.952;2024-01-30T00:04:44;1999.90;;;999.90;;
17283;SDS011;8760;52.248;20.952;2024-01-30T00:07:12;1999.90;;;999.90;;
17283;SDS011;8760;52.248;20.952;2024-01-30T00:09:39;1999.90;;;999.90;;
17283;SDS011;8760;52.248;20.952;2024-01-30T00:12:06;1999.90;;;999.90;;
17283;SDS011;8760;52.248;20.952;2024-01-30T00:14:33;1999.90;;;999.90;;
17283;SDS011;8760;52.248;20.952;2024-01-30T00:17:00;1999.90;;;999.90;;
17283;SDS011;8760;52.248;20.952;2024-01-30T00:19:27;1999.90;;;999.90;;
17283;SDS011;8760;52.248;20.952;2024-01-30T00:21:53;1999.90;;;999.90;;
17283;SDS011;8760;52.248;20.952;2024-01-30T00:24:22;1999.90;;;999.90;;
17283;SDS011;8760;52.248;20.952;2024-01-30T00:26:48;1999.90;;;999.90;;
17283;SDS011;8760;52.248;20.952;2024-01-30T00:29:16;1999.90;;;999.90;;
17283;SDS011;8760;52.248;20.952;2024-01-30T00:31:44;1999.90;;;999.90;;
17283;SDS011;8760;52.248;20.952;2024-01-30T00:34:11;1999.90;;;999.90;;
17283;SDS011;8760;52.248;20.952;2024-01-30T00:36:38;1999.90;;;999.90;;
17283;SDS011;8760;52.248;20.952;2024-01-30T00:39:05;1999.90;;;999.90;;
17283;SDS011;8760;52.248;20.952;2024-01-30T00:41:35;1999.90;;;999.90;;
17283;SDS011;8760;52.248;20.952;2024-01-30T00:44:02;1999.90;;;999.90;;
17283;SDS011;8760;52.248;20.952;2024-01-30T00:46:29;1999.90;;;999.90;;
17283;SDS011;8760;52.248;20.952;2024-01-30T00:48:56;1999.90;;;999.90;;
17283;SDS011;8760;52.248;20.952;2024-01-30T00:51:22;1999.90;;;999.90;;
17283;SDS011;8760;52.248;20.952;2024-01-30T00:53:50;1999.90;;;999.90;;
17283;SDS011;8760;52.248;20.952;2024-01-30T00:56:16;1999.90;;;999.90;;
17283;SDS011;8760;52.248;20.952;2024-01-30T00:58:45;1999.90;;;999.90;;
17283;SDS011;8760;52.248;20.952;2024-01-30T01:01:12;1999.90;;;999.90;;
17283;SDS011;8760;52.248;20.952;2024-01-30T01:03:39;1999.90;;;999.90;;
17283;SDS011;8760;52.248;20.952;2024-01-30T01:06:08;1999.90;;;999.90;;
17283;SDS011;8760;52.248;20.952;2024-01-30T01:08:35;1999.90;;;999.90;;
17283;SDS011;8760;52.248;20.952;2024-01-30T01:11:02;1999.90;;;999.90;;
17283;SDS011;8760;52.248;20.952;2024-01-30T01:13:29;1999.90;;;999.90;;
17283;SDS011;8760;52.248;20.952;2024-01-30T01:15:57;1999.90;;;999.90;;
17283;SDS011;8760;52.248;20.952;2024-01-30T01:18:24;1999.90;;;999.90;;
17283;SDS011;8760;52.248;20.952;2024-01-30T01:20:52;1999.90;;;999.90;;
17283;SDS011;8760;52.248;20.952;2024-01-30T01:23:19;1999.90;;;999.90;;
17283;SDS011;8760;52.248;20.952;2024-01-30T01:25:45;1999.90;;;999.90;;
17283;SDS011;8760;52.248;20.952;2024-01-30T01:28:12;1999.90;;;999.90;;
17283;SDS011;8760;52.248;20.952;2024-01-30T01:30:39;1999.90;;;999.90;;
17283;SDS011;8760;52.248;20.952;2024-01-30T01:33:08;1999.90;;;999.90;;
17283;SDS011;8760;52.248;20.952;2024-01-30T01:35:35;1999.90;;;999.90;;
17283;SDS011;8760;52.248;20.952;2024-01-30T01:38:02;1999.90;;;999.90;;
17283;SDS011;8760;52.248;20.952;2024-01-30T01:40:29;1999.90;;;999.90;;
17283;SDS011;8760;52.248;20.952;2024-01-30T01:42:56;1999.90;;;999.90;;
17283;SDS011;8760;52.248;20.952;2024-01-30T01:45:23;1999.90;;;999.90;;
17283;SDS011;8760;52.248;20.952;2024-01-30T01:47:50;1999.90;;;999.90;;
17283;SDS011;8760;52.248;20.952;2024-01-30T01:50:19;1999.90;;;999.90;;
17283;SDS011;8760;52.248;20.952;2024-01-30T01:52:47;1999.90;;;999.90;;
17283;SDS011;8760;52.248;20.952;2024-01-30T01:55:15;1999.90;;;999.90;;
17283;SDS011;8760;52.248;20.952;2024-01-30T01:57:46;1999.90;;;999.90;;
17283;SDS011;8760;52.248;20.952;2024-01-30T02:00:13;1999.90;;;999.90;;
17283;SDS011;8760;52.248;20.952;2024-01-30T02:02:40;1999.90;;;999.90;;
17283;SDS011;8760;52.248;20.952;2024-01-30T02:05:09;1999.90;;;999.90;;
17283;SDS011;8760;52.248;20.952;2024-01-30T02:07:38;1999.90;;;999.90;;
17283;SDS011;8760;52.248;20.952;2024-01-30T02:10:05;1999.90;;;999.90;;
17283;SDS011;8760;52.248;20.952;2024-01-30T02:12:34;1999.90;;;999.90;;
17283;SDS011;8760;52.248;20.952;2024-01-30T02:15:00;1999.90;;;999.90;;
17283;SDS011;8760;52.248;20.952;2024-01-30T02:17:27;1999.90;;;999.90;;
17283;SDS011;8760;52.248;20.952;2024-01-30T02:19:54;1999.90;;;999.90;;
17283;SDS011;8760;52.248;20.952;2024-01-30T02:22:22;1999.90;;;999.90;;
17283;SDS011;8760;52.248;20.952;2024-01-30T02:24:50;1999.90;;;999.90;;
17283;SDS011;8760;52.248;20.952;2024-01-30T02:27:17;1999.90;;;999.90;;
17283;SDS011;8760;52.248;20.952;2024-01-30T02:29:44;1999.90;;;999.90;;
17283;SDS011;8760;52.248;20.952;2024-01-30T02:32:11;1999.90;;;999.90;;
17283;SDS011;8760;52.248;20.952;2024-01-30T02:34:37;1999.90;;;999.90;;
17283;SDS011;8760;52.248;20.952;2024-01-30T02:37:04;1999.90;;;999.90;;
17283;SDS011;8760;52.248;20.952;2024-01-30T02:39:32;1999.90;;;999.90;;
17283;SDS011;8760;52.248;20.952;2024-01-30T02:41:59;1999.90;;;999.90;;
17283;SDS011;8760;52.248;20.952;2024-01-30T02:44:26;1999.90;;;999.90;;
17283;SDS011;8760;52.248;20.952;2024-01-30T02:46:53;1999.90;;;999.90;;
17283;SDS011;8760;52.248;20.952;2024-01-30T02:49:20;1999.90;;;999.90;;
17283;SDS011;8760;52.248;20.952;2024-01-30T02:51:47;1999.90;;;999.90;;
17283;SDS011;8760;52.248;20.952;2024-01-30T02:54:14;1999.90;;;999.90;;
17283;SDS011;8760;52.248;20.952;2024-01-30T02:56:42;1999.90;;;999.90;;
17283;SDS011;8760;52.248;20.952;2024-01-30T02:59:09;1999.90;;;999.90;;
17283;SDS011;8760;52.248;20.952;2024-01-30T03:01:42;1999.90;;;999.90;;
17283;SDS011;8760;52.248;20.952;2024-01-30T03:04:09;1999.90;;;999.90;;
17283;SDS011;8760;52.248;20.952;2024-01-30T03:06:36;1999.90;;;999.90;;
17283;SDS011;8760;52.248;20.952;2024-01-30T03:09:03;1999.90;;;999.90;;
17283;SDS011;8760;52.248;20.952;2024-01-30T03:11:30;1999.90;;;999.90;;
17283;SDS011;8760;52.248;20.952;2024-01-30T03:13:58;1999.90;;;999.90;;
17283;SDS011;8760;52.248;20.952;2024-01-30T03:16:25;1999.90;;;999.90;;
17283;SDS011;8760;52.248;20.952;2024-01-30T03:18:52;1999.90;;;999.90;;
17283;SDS011;8760;52.248;20.952;2024-01-30T03:21:19;1999.90;;;999.90;;
17283;SDS011;8760;52.248;20.952;2024-01-30T03:23:45;1999.90;;;999.90;;
17283;SDS011;8760;52.248;20.952;2024-01-30T03:26:12;1999.90;;;999.90;;
17283;SDS011;8760;52.248;20.952;2024-01-30T03:28:40;1999.90;;;999.90;;
17283;SDS011;8760;52.248;20.952;2024-01-30T03:31:08;1999.90;;;999.90;;
17283;SDS011;8760;52.248;20.952;2024-01-30T03:33:36;1999.90;;;999.90;;
17283;SDS011;8760;52.248;20.952;2024-01-30T03:36:04;1999.90;;;999.90;;
17283;SDS011;8760;52.248;20.952;2024-01-30T03:38:31;1999.90;;;999.90;;
17283;SDS011;8760;52.248;20.952;2024-01-30T03:40:58;1999.90;;;999.90;;
17283;SDS011;8760;52.248;20.952;2024-01-30T03:43:25;1999.90;;;999.90;;
17283;SDS011;8760;52.248;20.952;2024-01-30T03:45:52;1999.90;;;999.90;;
17283;SDS011;8760;52.248;20.952;2024-01-30T03:48:21;1999.90;;;999.90;;
17283;SDS011;8760;52.248;20.952;2024-01-30T03:50:47;1999.90;;;999.90;;
17283;SDS011;8760;52.248;20.952;2024-01-30T03:53:14;1999.90;;;999.90;;
17283;SDS011;8760;52.248;20.952;2024-01-30T03:55:41;1999.90;;;999.90;;
17283;SDS011;8760;52.248;20.952;2024-01-30T03:58:08;1999.90;;;999.90;;
17283;SDS011;8760;52.248;20.952;2024-01-30T04:00:35;1999.90;;;999.90;;
17283;SDS011;8760;52.248;20.952;2024-01-30T04:03:02;1999.90;;;999.90;;
17283;SDS011;8760;52.248;20.952;2024-01-30T04:05:30;1999.90;;;999.90;;
17283;SDS011;8760;52.248;20.952;2024-01-30T04:07:57;1999.90;;;999.90;;
17283;SDS011;8760;52.248;20.952;2024-01-30T04:10:24;1999.90;;;999.90;;
17283;SDS011;8760;52.248;20.952;2024-01-30T04:12:51;1999.90;;;999.90;;
17283;SDS011;8760;52.248;20.952;2024-01-30T04:15:19;1999.90;;;999.90;;
17283;SDS011;8760;52.248;20.952;2024-01-30T04:17:46;1999.90;;;999.90;;
17283;SDS011;8760;52.248;20.952;2024-01-30T04:20:13;1999.90;;;999.90;;
17283;SDS011;8760;52.248;20.952;2024-01-30T04:22:43;1999.90;;;999.90;;
17283;SDS011;8760;52.248;20.952;2024-01-30T04:25:10;1999.90;;;999.90;;
17283;SDS011;8760;52.248;20.952;2024-01-30T04:27:37;1999.90;;;999.90;;
17283;SDS011;8760;52.248;20.952;2024-01-30T04:30:04;1999.90;;;999.90;;
17283;SDS011;8760;52.248;20.952;2024-01-30T04:32:32;1999.90;;;999.90;;
17283;SDS011;8760;52.248;20.952;2024-01-30T04:34:59;1999.90;;;999.90;;
17283;SDS011;8760;52.248;20.952;2024-01-30T04:37:26;1999.90;;;999.90;;
17283;SDS011;8760;52.248;20.952;2024-01-30T04:39:54;1999.90;;;999.90;;
17283;SDS011;8760;52.248;20.952;2024-01-30T04:42:21;1999.90;;;999.90;;
17283;SDS011;8760;52.248;20.952;2024-01-30T04:44:47;1999.90;;;999.90;;
17283;SDS011;8760;52.248;20.952;2024-01-30T04:47:14;1999.90;;;999.90;;
17283;SDS011;8760;52.248;20.952;2024-01-30T04:49:41;1999.90;;;999.90;;
17283;SDS011;8760;52.248;20.952;2024-01-30T04:52:08;1999.90;;;999.90;;
17283;SDS011;8760;52.248;20.952;2024-01-30T04:54:35;1999.90;;;999.90;;
17283;SDS011;8760;52.248;20.952;2024-01-30T04:57:04;1999.90;;;999.90;;
17283;SDS011;8760;52.248;20.952;2024-01-30T04:59:34;1999.90;;;999.90;;
17283;SDS011;8760;52.248;20.952;2024-01-30T05:02:01;1999.90;;;999.90;;
17283;SDS011;8760;52.248;20.952;2024-01-30T05:04:28;1999.90;;;999.90;;
17283;SDS011;8760;52.248;20.952;2024-01-30T05:06:55;1999.90;;;999.90;;
17283;SDS011;8760;52.248;20.952;2024-01-30T05:09:22;1999.90;;;999.90;;
17283;SDS011;8760;52.248;20.952;2024-01-30T05:11:49;1999.90;;;999.90;;
17283;SDS011;8760;52.248;20.952;2024-01-30T05:14:17;1999.90;;;999.90;;
17283;SDS011;8760;52.248;20.952;2024-01-30T05:16:44;1999.90;;;999.90;;
17283;SDS011;8760;52.248;20.952;2024-01-30T05:19:12;1999.90;;;999.90;;
17283;SDS011;8760;52.248;20.952;2024-01-30T05:21:39;1999.90;;;999.90;;
17283;SDS011;8760;52.248;20.952;2024-01-30T05:24:06;1999.90;;;999.90;;
17283;SDS011;8760;52.248;20.952;2024-01-30T05:26:35;1999.90;;;999.90;;
17283;SDS011;8760;52.248;20.952;2024-01-30T05:29:02;1999.90;;;999.90;;
17283;SDS011;8760;52.248;20.952;2024-01-30T05:31:30;1999.90;;;999.90;;
17283;SDS011;8760;52.248;20.952;2024-01-30T05:33:57;1999.90;;;999.90;;
17283;SDS011;8760;52.248;20.952;2024-01-30T05:36:24;1999.90;;;999.90;;
17283;SDS011;8760;52.248;20.952;2024-01-30T05:38:50;1999.90;;;999.90;;
17283;SDS011;8760;52.248;20.952;2024-01-30T05:41:17;1999.90;;;999.90;;
17283;SDS011;8760;52.248;20.952;2024-01-30T05:43:46;1999.90;;;999.90;;
17283;SDS011;8760;52.248;20.952;2024-01-30T05:46:12;1999.90;;;999.90;;
17283;SDS011;8760;52.248;20.952;2024-01-30T05:48:41;1999.90;;;999.90;;
17283;SDS011;8760;52.248;20.952;2024-01-30T05:51:08;1999.90;;;999.90;;
17283;SDS011;8760;52.248;20.952;2024-01-30T05:53:35;1999.90;;;999.90;;
17283;SDS011;8760;52.248;20.952;2024-01-30T05:56:02;1999.90;;;999.90;;
17283;SDS011;8760;52.248;20.952;2024-01-30T05:58:29;1999.90;;;999.90;;
17283;SDS011;8760;52.248;20.952;2024-01-30T06:00:57;1999.90;;;999.90;;
17283;SDS011;8760;52.248;20.952;2024-01-30T06:03:24;1999.90;;;999.90;;
17283;SDS011;8760;52.248;20.952;2024-01-30T06:05:52;1999.90;;;999.90;;
17283;SDS011;8760;52.248;20.952;2024-01-30T06:08:19;1999.90;;;999.90;;
17283;SDS011;8760;52.248;20.952;2024-01-30T06:10:45;1999.90;;;999.90;;
17283;SDS011;8760;52.248;20.952;2024-01-30T06:13:12;1999.90;;;999.90;;
17283;SDS011;8760;52.248;20.952;2024-01-30T06:15:40;1999.90;;;999.90;;
17283;SDS011;8760;52.248;20.952;2024-01-30T06:18:06;1999.90;;;999.90;;
17283;SDS011;8760;52.248;20.952;2024-01-30T06:20:33;1999.90;;;999.90;;
17283;SDS011;8760;52.248;20.952;2024-01-30T06:23:02;1999.90;;;999.90;;
17283;SDS011;8760;52.248;20.952;2024-01-30T06:25:29;1999.90;;;999.90;;
17283;SDS011;8760;52.248;20.952;2024-01-30T06:27:56;1999.90;;;999.90;;
17283;SDS011;8760;52.248;20.952;2024-01-30T06:30:23;1999.90;;;999.90;;
17283;SDS011;8760;52.248;20.952;2024-01-30T06:32:49;1999.90;;;999.90;;
17283;SDS011;8760;52.248;20.952;2024-01-30T06:35:16;1999.90;;;999.90;;
17283;SDS011;8760;52.248;20.952;2024-01-30T06:37:43;1999.90;;;999.90;;
17283;SDS011;8760;52.248;20.952;2024-01-30T06:40:12;1999.90;;;999.90;;
17283;SDS011;8760;52.248;20.952;2024-01-30T06:42:39;1999.90;;;999.90;;
17283;SDS011;8760;52.248;20.952;2024-01-30T06:45:06;1999.90;;;999.90;;
17283;SDS011;8760;52.248;20.952;2024-01-30T06:47:34;1999.90;;;999.90;;
17283;SDS011;8760;52.248;20.952;2024-01-30T06:50:00;1999.90;;;999.90;;
17283;SDS011;8760;52.248;20.952;2024-01-30T06:52:28;1999.90;;;999.90;;
17283;SDS011;8760;52.248;20.952;2024-01-30T06:54:55;1999.90;;;999.90;;
17283;SDS011;8760;52.248;20.952;2024-01-30T06:57:23;1999.90;;;999.90;;
17283;SDS011;8760;52.248;20.952;2024-01-30T06:59:51;1999.90;;;999.90;;
17283;SDS011;8760;52.248;20.952;2024-01-30T07:02:17;1999.90;;;999.90;;
17283;SDS011;8760;52.248;20.952;2024-01-30T07:04:44;1999.90;;;999.90;;
17283;SDS011;8760;52.248;20.952;2024-01-30T07:07:11;1999.90;;;999.90;;
17283;SDS011;8760;52.248;20.952;2024-01-30T07:09:40;1999.90;;;999.90;;
17283;SDS011;8760;52.248;20.952;2024-01-30T07:12:07;1999.90;;;999.90;;
17283;SDS011;8760;52.248;20.952;2024-01-30T07:14:35;1999.90;;;999.90;;
17283;SDS011;8760;52.248;20.952;2024-01-30T07:17:03;1999.90;;;999.90;;
17283;SDS011;8760;52.248;20.952;2024-01-30T07:19:30;1999.90;;;999.90;;
17283;SDS011;8760;52.248;20.952;2024-01-30T07:21:57;1999.90;;;999.90;;
17283;SDS011;8760;52.248;20.952;2024-01-30T07:24:23;1999.90;;;999.90;;
17283;SDS011;8760;52.248;20.952;2024-01-30T07:26:50;1999.90;;;999.90;;
17283;SDS011;8760;52.248;20.952;2024-01-30T07:29:17;1999.90;;;999.90;;
17283;SDS011;8760;52.248;20.952;2024-01-30T07:31:45;1999.90;;;999.90;;
17283;SDS011;8760;52.248;20.952;2024-01-30T07:34:12;1999.90;;;999.90;;
17283;SDS011;8760;52.248;20.952;2024-01-30T07:36:39;1999.90;;;999.90;;
17283;SDS011;8760;52.248;20.952;2024-01-30T07:39:06;1999.90;;;999.90;;
17283;SDS011;8760;52.248;20.952;2024-01-30T07:41:35;1999.90;;;999.90;;
17283;SDS011;8760;52.248;20.952;2024-01-30T07:44:02;1999.90;;;999.90;;
17283;SDS011;8760;52.248;20.952;2024-01-30T07:46:29;1999.90;;;999.90;;
17283;SDS011;8760;52.248;20.952;2024-01-30T07:48:58;1999.90;;;999.90;;
17283;SDS011;8760;52.248;20.952;2024-01-30T07:51:25;1999.90;;;999.90;;
17283;SDS011;8760;52.248;20.952;2024-01-30T07:53:53;1999.90;;;999.90;;
17283;SDS011;8760;52.248;20.952;2024-01-30T07:56:20;1999.90;;;999.90;;
17283;SDS011;8760;52.248;20.952;2024-01-30T07:58:47;1999.90;;;999.90;;
17283;SDS011;8760;52.248;20.952;2024-01-30T08:01:14;1999.90;;;999.90;;
17283;SDS011;8760;52.248;20.952;2024-01-30T08:03:41;1999.90;;;999.90;;
17283;SDS011;8760;52.248;20.952;2024-01-30T08:06:09;1999.90;;;999.90;;
17283;SDS011;8760;52.248;20.952;2024-01-30T08:08:36;1999.90;;;999.90;;
17283;SDS011;8760;52.248;20.952;2024-01-30T08:11:03;1999.90;;;999.90;;
17283;SDS011;8760;52.248;20.952;2024-01-30T08:13:30;1999.90;;;999.90;;
17283;SDS011;8760;52.248;20.952;2024-01-30T08:15:57;1999.90;;;999.90;;
17283;SDS011;8760;52.248;20.952;2024-01-30T08:18:24;1999.90;;;999.90;;
17283;SDS011;8760;52.248;20.952;2024-01-30T08:20:51;1999.90;;;999.90;;
17283;SDS011;8760;52.248;20.952;2024-01-30T08:23:19;1999.90;;;999.90;;
17283;SDS011;8760;52.248;20.952;2024-01-30T08:25:46;1999.90;;;999.90;;
17283;SDS011;8760;52.248;20.952;2024-01-30T08:28:13;1999.90;;;999.90;;
17283;SDS011;8760;52.248;20.952;2024-01-30T08:30:40;1999.90;;;999.90;;
17283;SDS011;8760;52.248;20.952;2024-01-30T08:33:07;1999.90;;;999.90;;
17283;SDS011;8760;52.248;20.952;2024-01-30T08:35:34;1999.90;;;999.90;;
17283;SDS011;8760;52.248;20.952;2024-01-30T08:38:00;1999.90;;;999.90;;
17283;SDS011;8760;52.248;20.952;2024-01-30T08:40:29;1999.90;;;999.90;;
17283;SDS011;8760;52.248;20.952;2024-01-30T08:42:56;1999.90;;;999.90;;
17283;SDS011;8760;52.248;20.952;2024-01-30T08:45:23;422.80;;;355.23;;
17283;SDS011;8760;52.248;20.952;2024-01-30T08:47:50;48.63;;;38.27;;
17283;SDS011;8760;52.248;20.952;2024-01-30T08:50:17;26.13;;;16.30;;
17283;SDS011;8760;52.248;20.952;2024-01-30T08:52:44;22.50;;;15.10;;
17283;SDS011;8760;52.248;20.952;2024-01-30T08:55:12;24.93;;;15.27;;
17283;SDS011;8760;52.248;20.952;2024-01-30T08:57:40;23.50;;;15.68;;
17283;SDS011;8760;52.248;20.952;2024-01-30T09:00:07;25.10;;;14.75;;
17283;SDS011;8760;52.248;20.952;2024-01-30T09:02:35;23.42;;;14.60;;
17283;SDS011;8760;52.248;20.952;2024-01-30T09:05:02;23.48;;;14.82;;
17283;SDS011;8760;52.248;20.952;2024-01-30T09:07:29;23.80;;;15.18;;
17283;SDS011;8760;52.248;20.952;2024-01-30T09:09:56;18.33;;;13.20;;
17283;SDS011;8760;52.248;20.952;2024-01-30T09:12:23;19.88;;;14.13;;
17283;SDS011;8760;52.248;20.952;2024-01-30T09:14:51;20.88;;;13.90;;
17283;SDS011;8760;52.248;20.952;2024-01-30T09:17:17;19.75;;;12.75;;
17283;SDS011;8760;52.248;20.952;2024-01-30T09:19:45;19.55;;;12.82;;
17283;SDS011;8760;52.248;20.952;2024-01-30T09:22:12;17.77;;;12.55;;
17283;SDS011;8760;52.248;20.952;2024-01-30T09:24:39;17.92;;;12.55;;
17283;SDS011;8760;52.248;20.952;2024-01-30T09:27:06;19.52;;;12.80;;
17283;SDS011;8760;52.248;20.952;2024-01-30T09:29:33;16.75;;;11.55;;
17283;SDS011;8760;52.248;20.952;2024-01-30T09:32:03;18.35;;;11.50;;
17283;SDS011;8760;52.248;20.952;2024-01-30T09:34:31;15.00;;;11.18;;
17283;SDS011;8760;52.248;20.952;2024-01-30T09:36:58;22.85;;;12.68;;
17283;SDS011;8760;52.248;20.952;2024-01-30T09:39:25;18.88;;;11.52;;
17283;SDS011;8760;52.248;20.952;2024-01-30T09:41:54;17.88;;;11.95;;
17283;SDS011;8760;52.248;20.952;2024-01-30T09:44:28;18.40;;;11.80;;
17283;SDS011;8760;52.248;20.952;2024-01-30T09:46:55;21.40;;;11.93;;
17283;SDS011;8760;52.248;20.952;2024-01-30T09:49:25;20.70;;;11.35;;
17283;SDS011;8760;52.248;20.952;2024-01-30T09:51:52;18.52;;;11.82;;
17283;SDS011;8760;52.248;20.952;2024-01-30T09:54:20;19.30;;;11.48;;
17283;SDS011;8760;52.248;20.952;2024-01-30T09:56:48;17.33;;;11.32;;
17283;SDS011;8760;52.248;20.952;2024-01-30T09:59:15;18.20;;;11.57;;
17283;SDS011;8760;52.248;20.952;2024-01-30T10:01:42;17.08;;;10.80;;
17283;SDS011;8760;52.248;20.952;2024-01-30T10:04:09;18.05;;;11.13;;
17283;SDS011;8760;52.248;20.952;2024-01-30T10:06:38;17.27;;;11.15;;
17283;SDS011;8760;52.248;20.952;2024-01-30T10:09:06;15.43;;;10.68;;
17283;SDS011;8760;52.248;20.952;2024-01-30T10:11:34;17.38;;;10.27;;
17283;SDS011;8760;52.248;20.952;2024-01-30T10:14:02;15.88;;;11.20;;
17283;SDS011;8760;52.248;20.952;2024-01-30T10:16:29;21.48;;;11.88;;
17283;SDS011;8760;52.248;20.952;2024-01-30T10:18:55;17.05;;;10.73;;
17283;SDS011;8760;52.248;20.952;2024-01-30T10:21:22;18.55;;;11.60;;
17283;SDS011;8760;52.248;20.952;2024-01-30T10:23:51;17.35;;;10.73;;
17283;SDS011;8760;52.248;20.952;2024-01-30T10:26:17;16.30;;;10.98;;
17283;SDS011;8760;52.248;20.952;2024-01-30T10:28:44;19.85;;;11.38;;
17283;SDS011;8760;52.248;20.952;2024-01-30T10:31:15;16.63;;;11.80;;
17283;SDS011;8760;52.248;20.952;2024-01-30T10:33:43;18.48;;;12.20;;
17283;SDS011;8760;52.248;20.952;2024-01-30T10:36:11;17.70;;;10.88;;
17283;SDS011;8760;52.248;20.952;2024-01-30T10:38:42;17.50;;;11.05;;
17283;SDS011;8760;52.248;20.952;2024-01-30T10:41:12;21.35;;;10.98;;
17283;SDS011;8760;52.248;20.952;2024-01-30T10:43:42;16.90;;;11.15;;
17283;SDS011;8760;52.248;20.952;2024-01-30T10:46:24;18.20;;;11.25;;
17283;SDS011;8760;52.248;20.952;2024-01-30T10:48:57;17.77;;;11.27;;
17283;SDS011;8760;52.248;20.952;2024-01-30T10:51:25;17.70;;;11.50;;
17283;SDS011;8760;52.248;20.952;2024-01-30T10:53:53;16.05;;;11.93;;
17283;SDS011;8760;52.248;20.952;2024-01-30T10:56:23;16.95;;;11.50;;
17283;SDS011;8760;52.248;20.952;2024-01-30T10:58:50;16.25;;;10.68;;
17283;SDS011;8760;52.248;20.952;2024-01-30T11:01:17;15.60;;;11.07;;
17283;SDS011;8760;52.248;20.952;2024-01-30T11:03:47;17.45;;;10.80;;
17283;SDS011;8760;52.248;20.952;2024-01-30T11:06:15;15.68;;;10.75;;
17283;SDS011;8760;52.248;20.952;2024-01-30T11:08:43;15.65;;;10.75;;
17283;SDS011;8760;52.248;20.952;2024-01-30T11:11:10;16.83;;;11.00;;
17283;SDS011;8760;52.248;20.952;2024-01-30T11:13:39;15.75;;;11.02;;
17283;SDS011;8760;52.248;20.952;2024-01-30T11:16:07;16.08;;;10.98;;
17283;SDS011;8760;52.248;20.952;2024-01-30T11:18:38;14.88;;;10.88;;
17283;SDS011;8760;52.248;20.952;2024-01-30T11:21:05;14.98;;;10.45;;
17283;SDS011;8760;52.248;20.952;2024-01-30T11:23:33;18.98;;;10.68;;
17283;SDS011;8760;52.248;20.952;2024-01-30T11:26:00;17.92;;;11.05;;
17283;SDS011;8760;52.248;20.952;2024-01-30T11:28:32;15.40;;;10.75;;
17283;SDS011;8760;52.248;20.952;2024-01-30T11:31:04;15.60;;;10.27;;
17283;SDS011;8760;52.248;20.952;2024-01-30T11:33:32;13.65;;;10.57;;
17283;SDS011;8760;52.248;20.952;2024-01-30T11:36:00;14.90;;;10.70;;
17283;SDS011;8760;52.248;20.952;2024-01-30T11:38:28;14.32;;;10.07;;
17283;SDS011;8760;52.248;20.952;2024-01-30T11:40:55;17.98;;;11.52;;
17283;SDS011;8760;52.248;20.952;2024-01-30T11:43:22;16.60;;;10.80;;
17283;SDS011;8760;52.248;20.952;2024-01-30T11:45:50;18.15;;;10.82;;
17283;SDS011;8760;52.248;20.952;2024-01-30T11:48:18;20.45;;;10.80;;
17283;SDS011;8760;52.248;20.952;2024-01-30T11:50:45;16.55;;;10.80;;
17283;SDS011;8760;52.248;20.952;2024-01-30T11:53:12;16.73;;;10.48;;
17283;SDS011;8760;52.248;20.952;2024-01-30T11:55:41;18.88;;;11.15;;
17283;SDS011;8760;52.248;20.952;2024-01-30T11:58:15;15.95;;;10.57;;
17283;SDS011;8760;52.248;20.952;2024-01-30T12:00:42;15.73;;;11.43;;
17283;SDS011;8760;52.248;20.952;2024-01-30T12:03:09;16.73;;;11.23;;
17283;SDS011;8760;52.248;20.952;2024-01-30T12:05:39;19.92;;;12.50;;
17283;SDS011;8760;52.248;20.952;2024-01-30T12:08:08;15.10;;;11.32;;
17283;SDS011;8760;52.248;20.952;2024-01-30T12:10:41;16.75;;;11.40;;
17283;SDS011;8760;52.248;20.952;2024-01-30T12:13:10;17.05;;;11.20;;
17283;SDS011;8760;52.248;20.952;2024-01-30T12:15:37;26.30;;;12.10;;
17283;SDS011;8760;52.248;20.952;2024-01-30T12:18:04;19.25;;;12.23;;
17283;SDS011;8760;52.248;20.952;2024-01-30T12:20:32;15.82;;;11.38;;
17283;SDS011;8760;52.248;20.952;2024-01-30T12:23:00;16.85;;;11.32;;
17283;SDS011;8760;52.248;20.952;2024-01-30T12:25:27;15.48;;;10.65;;
17283;SDS011;8760;52.248;20.952;2024-01-30T12:27:57;17.75;;;11.75;;
17283;SDS011;8760;52.248;20.952;2024-01-30T12:30:24;16.15;;;11.45;;
17283;SDS011;8760;52.248;20.952;2024-01-30T12:32:51;16.95;;;11.25;;
17283;SDS011;8760;52.248;20.952;2024-01-30T12:35:18;15.50;;;11.27;;
17283;SDS011;8760;52.248;20.952;2024-01-30T12:37:46;23.30;;;11.57;;
17283;SDS011;8760;52.248;20.952;2024-01-30T12:40:16;16.48;;;11.25;;
17283;SDS011;8760;52.248;20.952;2024-01-30T12:42:45;18.63;;;11.27;;
17283;SDS011;8760;52.248;20.952;2024-01-30T12:45:14;15.85;;;10.77;;
17283;SDS011;8760;52.248;20.952;2024-01-30T12:47:41;18.88;;;11.60;;
17283;SDS011;8760;52.248;20.952;2024-01-30T12:50:08;15.45;;;11.18;;
17283;SDS011;8760;52.248;20.952;2024-01-30T12:52:37;15.37;;;11.37;;
17283;SDS011;8760;52.248;20.952;2024-01-30T12:55:04;17.17;;;12.25;;
17283;SDS011;8760;52.248;20.952;2024-01-30T12:57:33;18.92;;;12.20;;
17283;SDS011;8760;52.248;20.952;2024-01-30T13:00:00;19.27;;;11.80;;
17283;SDS011;8760;52.248;20.952;2024-01-30T13:02:28;18.77;;;11.25;;
17283;SDS011;8760;52.248;20.952;2024-01-30T13:05:01;15.85;;;11.43;;
17283;SDS011;8760;52.248;20.952;2024-01-30T13:07:28;16.60;;;11.13;;
17283;SDS011;8760;52.248;20.952;2024-01-30T13:09:56;17.83;;;11.90;;
17283;SDS011;8760;52.248;20.952;2024-01-30T13:12:27;16.67;;;11.43;;
17283;SDS011;8760;52.248;20.952;2024-01-30T13:14:55;16.35;;;11.52;;
17283;SDS011;8760;52.248;20.952;2024-01-30T13:17:22;22.98;;;11.82;;
17283;SDS011;8760;52.248;20.952;2024-01-30T13:19:49;19.73;;;10.93;;
17283;SDS011;8760;52.248;20.952;2024-01-30T13:22:16;19.80;;;10.13;;
17283;SDS011;8760;52.248;20.952;2024-01-30T13:24:43;17.33;;;11.45;;
17283;SDS011;8760;52.248;20.952;2024-01-30T13:27:10;15.95;;;11.10;;
17283;SDS011;8760;52.248;20.952;2024-01-30T13:29:37;18.58;;;11.05;;
17283;SDS011;8760;52.248;20.952;2024-01-30T13:32:05;16.33;;;10.63;;
17283;SDS011;8760;52.248;20.952;2024-01-30T13:34:32;15.10;;;10.60;;
17283;SDS011;8760;52.248;20.952;2024-01-30T13:36:59;16.70;;;11.23;;
17283;SDS011;8760;52.248;20.952;2024-01-30T13:39:26;16.88;;;11.15;;
17283;SDS011;8760;52.248;20.952;2024-01-30T13:41:54;19.23;;;10.77;;
17283;SDS011;8760;52.248;20.952;2024-01-30T13:44:21;19.10;;;11.27;;
17283;SDS011;8760;52.248;20.952;2024-01-30T13:46:47;16.67;;;11.90;;
17283;SDS011;8760;52.248;20.952;2024-01-30T13:49:16;17.90;;;11.50;;
17283;SDS011;8760;52.248;20.952;2024-01-30T13:51:43;17.97;;;12.00;;
17283;SDS011;8760;52.248;20.952;2024-01-30T13:54:09;17.83;;;11.53;;
17283;SDS011;8760;52.248;20.952;2024-01-30T13:56:36;17.70;;;11.33;;
17283;SDS011;8760;52.248;20.952;2024-01-30T13:59:03;18.30;;;11.00;;
17283;SDS011;8760;52.248;20.952;2024-01-30T14:01:30;21.73;;;11.57;;